Anzahl Datensätze: 287
min. Temperatur: 5.7 °C
max. Temperatur: 14.8 °C
max. Windgeschwindigkeit: 75.6 km/h
Niederschlagsumme: 20.2 mm
| Datum |
Zeit |
Temp °C |
Feuchte % |
Taupunkt °C |
Luftdruck hPa |
Wind km/h |
Windrichtung |
Strahlung w/m² |
Niederschlag mm |
|---|---|---|---|---|---|---|---|---|---|
| 10.02.2020 | 00:04 | 13.4 | 71 | 8.2 | 1001.3 | 20.9 | SW | 0 | 0.0 |
| 10.02.2020 | 00:08 | 13.6 | 70 | 8.2 | 1001.1 | 22.7 | SW | 0 | 0.0 |
| 10.02.2020 | 00:14 | 13.6 | 69 | 8.0 | 1001.1 | 25.9 | S | 0 | 0.0 |
| 10.02.2020 | 00:18 | 13.5 | 67 | 7.5 | 1001.0 | 27.4 | SW | 0 | 0.0 |
| 10.02.2020 | 00:24 | 13.3 | 68 | 7.5 | 1000.8 | 24.1 | SSW | 0 | 0.0 |
| 10.02.2020 | 00:28 | 13.3 | 68 | 7.5 | 1000.5 | 24.1 | SW | 0 | 0.0 |
| 10.02.2020 | 00:34 | 13.3 | 69 | 7.7 | 1000.8 | 25.9 | SSW | 0 | 0.0 |
| 10.02.2020 | 00:38 | 13.3 | 70 | 7.9 | 1000.6 | 25.9 | SSW | 0 | 0.0 |
| 10.02.2020 | 00:44 | 13.2 | 71 | 8.1 | 1000.3 | 24.1 | SSW | 0 | 0.0 |
| 10.02.2020 | 00:48 | 13.2 | 71 | 8.1 | 1000.2 | 22.7 | SW | 0 | 0.0 |
| 10.02.2020 | 00:54 | 13.2 | 72 | 8.3 | 1000.1 | 24.1 | SW | 0 | 0.0 |
| 10.02.2020 | 00:58 | 13.3 | 72 | 8.4 | 999.7 | 24.1 | SW | 0 | 0.0 |
| 10.02.2020 | 01:04 | 13.3 | 72 | 8.4 | 999.6 | 24.1 | SW | 0 | 0.0 |
| 10.02.2020 | 01:08 | 13.3 | 72 | 8.4 | 999.7 | 24.1 | SW | 0 | 0.0 |
| 10.02.2020 | 01:14 | 13.4 | 71 | 8.2 | 999.6 | 24.1 | SSW | 0 | 0.0 |
| 10.02.2020 | 01:18 | 13.6 | 71 | 8.4 | 999.4 | 24.1 | SSW | 0 | 0.0 |
| 10.02.2020 | 01:24 | 13.7 | 71 | 8.5 | 999.3 | 25.9 | SSW | 0 | 0.0 |
| 10.02.2020 | 01:28 | 13.8 | 71 | 8.6 | 999.2 | 24.1 | WSW | 0 | 0.0 |
| 10.02.2020 | 01:34 | 13.9 | 70 | 8.5 | 999.0 | 25.9 | SSW | 0 | 0.0 |
| 10.02.2020 | 01:38 | 14.1 | 70 | 8.7 | 999.0 | 27.4 | WSW | 0 | 0.0 |
| 10.02.2020 | 01:44 | 14.1 | 69 | 8.5 | 998.8 | 27.4 | SSW | 0 | 0.0 |
| 10.02.2020 | 01:48 | 14.2 | 69 | 8.6 | 998.9 | 27.4 | W | 0 | 0.0 |
| 10.02.2020 | 01:54 | 14.2 | 69 | 8.6 | 998.8 | 28.8 | SW | 0 | 0.0 |
| 10.02.2020 | 01:58 | 14.2 | 69 | 8.6 | 998.8 | 28.8 | SSW | 0 | 0.0 |
| 10.02.2020 | 02:04 | 14.3 | 69 | 8.7 | 998.8 | 28.8 | SW | 0 | 0.0 |
| 10.02.2020 | 02:08 | 14.3 | 69 | 8.7 | 998.6 | 27.4 | S | 0 | 0.0 |
| 10.02.2020 | 02:14 | 14.3 | 69 | 8.7 | 998.3 | 28.8 | SW | 0 | 0.0 |
| 10.02.2020 | 02:18 | 14.3 | 69 | 8.7 | 998.5 | 28.8 | SW | 0 | 0.0 |
| 10.02.2020 | 02:24 | 14.2 | 70 | 8.8 | 998.2 | 27.4 | SW | 0 | 0.0 |
| 10.02.2020 | 02:28 | 14.2 | 70 | 8.8 | 998.1 | 25.9 | SW | 0 | 0.0 |
| 10.02.2020 | 02:34 | 14.2 | 69 | 8.6 | 997.9 | 24.1 | SW | 0 | 0.0 |
| 10.02.2020 | 02:38 | 14.3 | 69 | 8.7 | 998.1 | 27.4 | SSW | 0 | 0.0 |
| 10.02.2020 | 02:44 | 14.4 | 69 | 8.8 | 998.3 | 27.4 | SSW | 0 | 0.0 |
| 10.02.2020 | 02:48 | 14.4 | 69 | 8.8 | 998.3 | 24.1 | SSW | 0 | 0.0 |
| 10.02.2020 | 02:54 | 14.5 | 68 | 8.7 | 998.1 | 24.1 | SW | 0 | 0.0 |
| 10.02.2020 | 02:58 | 14.6 | 68 | 8.8 | 997.9 | 24.1 | WSW | 0 | 0.0 |
| 10.02.2020 | 03:04 | 14.6 | 68 | 8.8 | 998.0 | 22.7 | SSW | 0 | 0.0 |
| 10.02.2020 | 03:08 | 14.6 | 68 | 8.8 | 997.7 | 24.1 | WSW | 0 | 0.0 |
| 10.02.2020 | 03:14 | 14.7 | 68 | 8.9 | 997.6 | 27.4 | WSW | 0 | 0.0 |
| 10.02.2020 | 03:18 | 14.7 | 68 | 8.9 | 997.5 | 25.9 | W | 0 | 0.0 |
| 10.02.2020 | 03:24 | 14.7 | 68 | 8.9 | 997.4 | 22.7 | WSW | 0 | 0.0 |
| 10.02.2020 | 03:28 | 14.7 | 68 | 8.9 | 997.3 | 22.7 | SW | 0 | 0.0 |
| 10.02.2020 | 03:34 | 14.7 | 69 | 9.1 | 997.3 | 24.1 | WSW | 0 | 0.0 |
| 10.02.2020 | 03:38 | 14.7 | 69 | 9.1 | 997.2 | 27.4 | WSW | 0 | 0.0 |
| 10.02.2020 | 03:44 | 14.6 | 70 | 9.2 | 997.3 | 25.9 | SSW | 0 | 0.0 |
| 10.02.2020 | 03:48 | 14.5 | 70 | 9.1 | 997.1 | 22.7 | WSW | 0 | 0.0 |
| 10.02.2020 | 03:54 | 14.5 | 70 | 9.1 | 997.1 | 24.1 | SW | 0 | 0.0 |
| 10.02.2020 | 03:58 | 14.6 | 69 | 9.0 | 997.2 | 27.4 | WSW | 0 | 0.0 |
| 10.02.2020 | 04:04 | 14.7 | 69 | 9.1 | 997.1 | 27.4 | SSW | 0 | 0.0 |
| 10.02.2020 | 04:08 | 14.7 | 69 | 9.1 | 996.9 | 24.1 | WSW | 0 | 0.0 |
| 10.02.2020 | 04:14 | 14.7 | 69 | 9.1 | 997.1 | 20.9 | W | 0 | 0.0 |
| 10.02.2020 | 04:18 | 14.8 | 71 | 9.6 | 997.2 | 22.7 | WSW | 0 | 0.0 |
| 10.02.2020 | 04:24 | 14.3 | 74 | 9.7 | 997.2 | 30.6 | W | 0 | 0.0 |
| 10.02.2020 | 04:28 | 14.0 | 77 | 10.0 | 997.0 | 32.0 | WSW | 0 | 0.2 |
| 10.02.2020 | 04:34 | 13.6 | 79 | 10.0 | 997.1 | 27.4 | SSW | 0 | 0.4 |
| 10.02.2020 | 04:38 | 13.4 | 79 | 9.8 | 997.0 | 24.1 | SW | 0 | 0.4 |
| 10.02.2020 | 04:44 | 13.6 | 78 | 9.8 | 997.0 | 22.7 | W | 0 | 0.4 |
| 10.02.2020 | 04:48 | 13.6 | 77 | 9.6 | 997.1 | 22.7 | W | 0 | 0.4 |
| 10.02.2020 | 04:54 | 13.8 | 76 | 9.6 | 997.0 | 25.9 | WNW | 0 | 0.4 |
| 10.02.2020 | 04:58 | 13.9 | 76 | 9.7 | 997.1 | 30.6 | WSW | 0 | 0.4 |
| 10.02.2020 | 05:04 | 13.9 | 76 | 9.7 | 997.1 | 27.4 | SW | 0 | 0.4 |
| 10.02.2020 | 05:08 | 13.9 | 76 | 9.7 | 997.1 | 22.7 | SW | 0 | 0.4 |
| 10.02.2020 | 05:14 | 13.8 | 76 | 9.6 | 997.2 | 19.4 | SW | 0 | 0.4 |
| 10.02.2020 | 05:18 | 13.8 | 76 | 9.6 | 997.2 | 24.1 | SSW | 0 | 0.4 |
| 10.02.2020 | 05:24 | 13.6 | 78 | 9.8 | 997.5 | 30.6 | SSW | 0 | 0.4 |
| 10.02.2020 | 05:28 | 13.3 | 81 | 10.1 | 997.7 | 28.8 | SSW | 0 | 0.4 |
| 10.02.2020 | 05:34 | 12.8 | 82 | 9.8 | 997.7 | 28.8 | W | 0 | 0.6 |
| 10.02.2020 | 05:38 | 12.7 | 83 | 9.9 | 997.8 | 30.6 | W | 0 | 0.6 |
| 10.02.2020 | 05:44 | 12.4 | 84 | 9.8 | 998.2 | 27.4 | W | 0 | 0.6 |
| 10.02.2020 | 05:48 | 12.4 | 83 | 9.6 | 998.3 | 27.4 | WSW | 0 | 0.8 |
| 10.02.2020 | 05:54 | 12.4 | 82 | 9.4 | 998.2 | 27.4 | WSW | 0 | 0.8 |
| 10.02.2020 | 05:58 | 12.3 | 81 | 9.1 | 998.3 | 25.9 | WSW | 0 | 0.8 |
| 10.02.2020 | 06:04 | 12.4 | 80 | 9.0 | 998.6 | 27.4 | SW | 0 | 0.8 |
| 10.02.2020 | 06:08 | 12.6 | 79 | 9.1 | 998.8 | 28.8 | WNW | 0 | 0.8 |
| 10.02.2020 | 06:14 | 12.5 | 80 | 9.1 | 999.2 | 25.9 | WSW | 0 | 0.8 |
| 10.02.2020 | 06:18 | 12.2 | 82 | 9.2 | 999.2 | 22.7 | WSW | 0 | 1.0 |
| 10.02.2020 | 06:24 | 11.6 | 84 | 9.0 | 999.9 | 24.1 | WSW | 0 | 1.4 |
| 10.02.2020 | 06:28 | 10.7 | 83 | 7.9 | 999.5 | 27.4 | W | 0 | 3.0 |
| 10.02.2020 | 06:34 | 10.0 | 85 | 7.6 | 999.6 | 30.6 | W | 0 | 4.2 |
| 10.02.2020 | 06:38 | 9.8 | 86 | 7.6 | 1000.0 | 28.8 | WSW | 0 | 4.4 |
| 10.02.2020 | 06:44 | 9.7 | 86 | 7.5 | 1000.6 | 25.9 | WSW | 0 | 4.6 |
| 10.02.2020 | 06:48 | 9.6 | 86 | 7.4 | 1000.5 | 25.9 | W | 0 | 4.8 |
| 10.02.2020 | 06:54 | 9.3 | 86 | 7.1 | 1000.2 | 22.7 | NW | 0 | 4.8 |
| 10.02.2020 | 06:58 | 9.2 | 86 | 7.0 | 999.8 | 20.9 | SW | 0 | 5.0 |
| 10.02.2020 | 07:04 | 9.2 | 87 | 7.1 | 999.9 | 17.6 | WNW | 0 | 5.0 |
| 10.02.2020 | 07:08 | 9.3 | 87 | 7.2 | 999.8 | 19.4 | WNW | 0 | 5.0 |
| 10.02.2020 | 07:14 | 9.3 | 86 | 7.1 | 999.8 | 16.2 | W | 0 | 5.0 |
| 10.02.2020 | 07:18 | 9.4 | 86 | 7.2 | 999.7 | 14.4 | W | 0 | 5.0 |
| 10.02.2020 | 07:24 | 9.4 | 85 | 7.0 | 999.8 | 16.2 | W | 0 | 5.0 |
| 10.02.2020 | 07:28 | 9.6 | 85 | 7.2 | 999.8 | 16.2 | SSW | 0 | 5.0 |
| 10.02.2020 | 07:34 | 9.7 | 85 | 7.3 | 999.6 | 16.2 | W | 0 | 5.0 |
| 10.02.2020 | 07:38 | 9.8 | 85 | 7.4 | 1000.2 | 14.4 | W | 0 | 5.0 |
| 10.02.2020 | 07:44 | 9.6 | 86 | 7.4 | 1002.4 | 19.4 | WSW | 0 | 5.0 |
| 10.02.2020 | 07:48 | 9.2 | 86 | 7.0 | 1002.2 | 27.4 | W | 0 | 6.0 |
| 10.02.2020 | 07:54 | 8.5 | 86 | 6.3 | 1002.5 | 27.4 | NW | 0 | 6.6 |
| 10.02.2020 | 07:58 | 8.3 | 85 | 5.9 | 1001.7 | 25.9 | WSW | 5 | 6.8 |
| 10.02.2020 | 08:04 | 8.1 | 86 | 5.9 | 1001.8 | 25.9 | W | 11 | 6.8 |
| 10.02.2020 | 08:08 | 8.0 | 86 | 5.8 | 1002.1 | 22.7 | WSW | 12 | 6.8 |
| 10.02.2020 | 08:14 | 7.9 | 85 | 5.5 | 1002.3 | 20.9 | SW | 14 | 6.8 |
| 10.02.2020 | 08:18 | 7.9 | 86 | 5.7 | 1002.3 | 19.4 | W | 19 | 7.0 |
| 10.02.2020 | 08:24 | 8.0 | 85 | 5.6 | 1002.2 | 19.4 | WSW | 26 | 7.0 |
| 10.02.2020 | 08:28 | 8.1 | 85 | 5.7 | 1002.5 | 19.4 | SW | 30 | 7.0 |
| 10.02.2020 | 08:34 | 8.2 | 84 | 5.7 | 1002.7 | 19.4 | W | 37 | 7.0 |
| 10.02.2020 | 08:38 | 8.4 | 83 | 5.7 | 1002.8 | 20.9 | SSO | 32 | 7.0 |
| 10.02.2020 | 08:44 | 8.6 | 82 | 5.7 | 1002.7 | 19.4 | W | 47 | 7.0 |
| 10.02.2020 | 08:48 | 8.6 | 81 | 5.5 | 1002.9 | 17.6 | WNW | 56 | 7.0 |
| 10.02.2020 | 08:54 | 8.8 | 80 | 5.5 | 1003.1 | 19.4 | WSW | 54 | 7.0 |
| 10.02.2020 | 08:58 | 8.9 | 79 | 5.5 | 1003.2 | 20.9 | WSW | 56 | 7.0 |
| 10.02.2020 | 09:04 | 8.9 | 78 | 5.3 | 1003.2 | 19.4 | W | 51 | 7.0 |
| 10.02.2020 | 09:08 | 9.1 | 77 | 5.3 | 1003.3 | 22.7 | SSW | 58 | 7.0 |
| 10.02.2020 | 09:14 | 9.2 | 77 | 5.4 | 1003.6 | 22.7 | W | 47 | 7.0 |
| 10.02.2020 | 09:18 | 9.3 | 77 | 5.5 | 1003.8 | 22.7 | WSW | 49 | 7.0 |
| 10.02.2020 | 09:24 | 9.6 | 75 | 5.4 | 1004.1 | 27.4 | NNW | 98 | 7.0 |
| 10.02.2020 | 09:28 | 9.7 | 74 | 5.3 | 1004.1 | 25.9 | WSW | 105 | 7.0 |
| 10.02.2020 | 09:34 | 9.8 | 72 | 5.0 | 1004.3 | 22.7 | W | 42 | 7.0 |
| 10.02.2020 | 09:38 | 9.9 | 71 | 4.9 | 1004.4 | 22.7 | W | 72 | 7.0 |
| 10.02.2020 | 09:44 | 10.1 | 69 | 4.7 | 1004.6 | 24.1 | WNW | 62 | 7.0 |
| 10.02.2020 | 09:48 | 10.2 | 68 | 4.6 | 1004.6 | 27.4 | WNW | 69 | 7.0 |
| 10.02.2020 | 09:54 | 10.2 | 66 | 4.1 | 1004.7 | 27.4 | SW | 56 | 7.0 |
| 10.02.2020 | 09:58 | 10.3 | 65 | 4.0 | 1004.9 | 27.4 | W | 63 | 7.0 |
| 10.02.2020 | 10:04 | 10.4 | 65 | 4.1 | 1005.2 | 27.4 | W | 151 | 7.0 |
| 10.02.2020 | 10:08 | 10.5 | 65 | 4.2 | 1005.2 | 24.1 | WNW | 241 | 7.0 |
| 10.02.2020 | 10:14 | 10.5 | 64 | 4.0 | 1005.1 | 20.9 | SW | 121 | 7.0 |
| 10.02.2020 | 10:18 | 10.5 | 64 | 4.0 | 1005.2 | 22.7 | N | 139 | 7.0 |
| 10.02.2020 | 10:24 | 10.5 | 65 | 4.2 | 1005.3 | 22.7 | W | 248 | 7.0 |
| 10.02.2020 | 10:28 | 10.6 | 65 | 4.3 | 1005.5 | 22.7 | W | 125 | 7.0 |
| 10.02.2020 | 10:34 | 9.2 | 72 | 4.4 | 1006.0 | 28.8 | SW | 28 | 7.0 |
| 10.02.2020 | 10:38 | 8.0 | 78 | 4.4 | 1006.5 | 32.0 | W | 32 | 7.0 |
| 10.02.2020 | 10:44 | 7.0 | 83 | 4.3 | 1006.6 | 30.6 | W | 42 | 7.8 |
| 10.02.2020 | 10:48 | 6.8 | 85 | 4.5 | 1006.7 | 25.9 | WNW | 25 | 8.2 |
| 10.02.2020 | 10:54 | 6.5 | 86 | 4.3 | 1006.8 | 20.9 | NNO | 47 | 8.2 |
| 10.02.2020 | 10:58 | 6.4 | 87 | 4.4 | 1006.7 | 20.9 | SW | 162 | 8.4 |
| 10.02.2020 | 11:04 | 6.6 | 88 | 4.8 | 1006.8 | 22.7 | W | 149 | 8.8 |
| 10.02.2020 | 11:08 | 6.7 | 88 | 4.9 | 1006.6 | 20.9 | WSW | 125 | 8.8 |
| 10.02.2020 | 11:14 | 7.1 | 89 | 5.4 | 1006.8 | 16.2 | W | 422 | 8.8 |
| 10.02.2020 | 11:18 | 7.3 | 89 | 5.6 | 1006.9 | 16.2 | W | 462 | 8.8 |
| 10.02.2020 | 11:24 | 7.9 | 87 | 5.9 | 1007.0 | 17.6 | SW | 550 | 8.8 |
| 10.02.2020 | 11:28 | 8.2 | 86 | 6.0 | 1007.2 | 17.6 | WSW | 494 | 8.8 |
| 10.02.2020 | 11:34 | 8.4 | 82 | 5.5 | 1007.1 | 19.4 | W | 209 | 8.8 |
| 10.02.2020 | 11:38 | 8.7 | 81 | 5.6 | 1007.2 | 19.4 | WSW | 724 | 8.8 |
| 10.02.2020 | 11:44 | 8.9 | 78 | 5.3 | 1007.5 | 19.4 | W | 91 | 8.8 |
| 10.02.2020 | 11:48 | 8.7 | 78 | 5.1 | 1007.8 | 20.9 | W | 65 | 8.8 |
| 10.02.2020 | 11:54 | 7.8 | 80 | 4.6 | 1008.1 | 20.9 | NW | 123 | 8.8 |
| 10.02.2020 | 11:58 | 7.2 | 84 | 4.7 | 1008.1 | 20.9 | W | 93 | 8.8 |
| 10.02.2020 | 12:04 | 6.8 | 87 | 4.8 | 1008.1 | 17.6 | WSW | 485 | 8.8 |
| 10.02.2020 | 12:08 | 7.3 | 87 | 5.3 | 1008.1 | 13.0 | WNW | 485 | 8.8 |
| 10.02.2020 | 12:14 | 8.1 | 86 | 5.9 | 1008.0 | 13.0 | WNW | 494 | 8.8 |
| 10.02.2020 | 12:18 | 8.4 | 83 | 5.7 | 1007.9 | 14.4 | W | 506 | 9.0 |
| 10.02.2020 | 12:24 | 9.0 | 78 | 5.4 | 1008.0 | 19.4 | W | 582 | 9.0 |
| 10.02.2020 | 12:28 | 9.3 | 76 | 5.3 | 1008.0 | 17.6 | WSW | 250 | 9.0 |
| 10.02.2020 | 12:34 | 9.4 | 74 | 5.0 | 1008.0 | 16.2 | WNW | 174 | 9.0 |
| 10.02.2020 | 12:38 | 9.6 | 72 | 4.8 | 1008.1 | 17.6 | WNW | 501 | 9.0 |
| 10.02.2020 | 12:44 | 9.9 | 68 | 4.3 | 1008.2 | 19.4 | WSW | 225 | 9.0 |
| 10.02.2020 | 12:48 | 10.2 | 67 | 4.3 | 1008.2 | 20.9 | WNW | 278 | 9.0 |
| 10.02.2020 | 12:54 | 10.6 | 65 | 4.3 | 1008.0 | 19.4 | W | 148 | 9.0 |
| 10.02.2020 | 12:58 | 10.7 | 63 | 3.9 | 1008.1 | 20.9 | SSW | 601 | 9.0 |
| 10.02.2020 | 13:04 | 11.1 | 60 | 3.6 | 1008.1 | 20.9 | WNW | 534 | 9.0 |
| 10.02.2020 | 13:08 | 11.1 | 59 | 3.4 | 1008.2 | 20.9 | W | 492 | 9.0 |
| 10.02.2020 | 13:14 | 11.2 | 58 | 3.2 | 1008.2 | 22.7 | W | 534 | 9.0 |
| 10.02.2020 | 13:18 | 11.3 | 57 | 3.1 | 1008.2 | 24.1 | WSW | 512 | 9.0 |
| 10.02.2020 | 13:24 | 11.4 | 56 | 2.9 | 1008.2 | 24.1 | SW | 517 | 9.0 |
| 10.02.2020 | 13:28 | 11.3 | 56 | 2.8 | 1008.4 | 24.1 | WNW | 392 | 9.0 |
| 10.02.2020 | 13:34 | 11.6 | 55 | 2.9 | 1008.6 | 20.9 | W | 541 | 9.0 |
| 10.02.2020 | 13:38 | 11.2 | 54 | 2.2 | 1008.4 | 20.9 | W | 127 | 9.0 |
| 10.02.2020 | 13:44 | 10.8 | 56 | 2.4 | 1008.6 | 24.1 | W | 139 | 9.0 |
| 10.02.2020 | 13:48 | 10.8 | 57 | 2.6 | 1008.8 | 20.9 | W | 213 | 9.0 |
| 10.02.2020 | 13:54 | 11.2 | 55 | 2.5 | 1008.7 | 17.6 | NW | 640 | 9.0 |
| 10.02.2020 | 13:58 | 11.4 | 54 | 2.4 | 1008.9 | 19.4 | WSW | 267 | 9.0 |
| 10.02.2020 | 14:04 | 11.4 | 54 | 2.4 | 1008.9 | 19.4 | WSW | 130 | 9.0 |
| 10.02.2020 | 14:08 | 11.3 | 54 | 2.3 | 1008.8 | 17.6 | NW | 139 | 9.0 |
| 10.02.2020 | 14:14 | 11.3 | 53 | 2.1 | 1008.8 | 20.9 | WSW | 403 | 9.0 |
| 10.02.2020 | 14:18 | 11.2 | 53 | 2.0 | 1008.6 | 24.1 | WSW | 169 | 9.0 |
| 10.02.2020 | 14:24 | 10.9 | 55 | 2.2 | 1008.6 | 25.9 | W | 107 | 9.0 |
| 10.02.2020 | 14:28 | 10.9 | 56 | 2.5 | 1008.6 | 24.1 | WSW | 186 | 9.0 |
| 10.02.2020 | 14:34 | 10.9 | 56 | 2.5 | 1008.5 | 20.9 | WNW | 176 | 9.0 |
| 10.02.2020 | 14:38 | 11.0 | 55 | 2.3 | 1008.5 | 20.9 | WSW | 178 | 9.0 |
| 10.02.2020 | 14:44 | 10.9 | 55 | 2.2 | 1008.5 | 19.4 | WSW | 127 | 9.0 |
| 10.02.2020 | 14:54 | 10.8 | 56 | 2.4 | 1008.5 | 17.6 | WSW | 193 | 9.0 |
| 10.02.2020 | 14:58 | 10.8 | 56 | 2.4 | 1008.3 | 20.9 | NW | 176 | 9.0 |
| 10.02.2020 | 15:04 | 10.9 | 57 | 2.7 | 1008.2 | 24.1 | WNW | 225 | 9.0 |
| 10.02.2020 | 15:08 | 10.9 | 56 | 2.5 | 1008.3 | 22.7 | WSW | 244 | 9.0 |
| 10.02.2020 | 15:14 | 11.1 | 57 | 2.9 | 1008.0 | 20.9 | WSW | 230 | 9.0 |
| 10.02.2020 | 15:18 | 11.1 | 57 | 2.9 | 1008.0 | 17.6 | S | 204 | 9.0 |
| 10.02.2020 | 15:24 | 11.0 | 58 | 3.1 | 1008.0 | 16.2 | SW | 165 | 9.0 |
| 10.02.2020 | 15:28 | 10.9 | 58 | 3.0 | 1008.0 | 17.6 | W | 162 | 9.0 |
| 10.02.2020 | 15:34 | 10.9 | 57 | 2.7 | 1008.0 | 17.6 | WSW | 141 | 9.0 |
| 10.02.2020 | 15:38 | 10.8 | 58 | 2.9 | 1008.0 | 16.2 | SW | 111 | 9.0 |
| 10.02.2020 | 15:44 | 10.8 | 58 | 2.9 | 1008.0 | 16.2 | SSW | 77 | 9.0 |
| 10.02.2020 | 15:48 | 10.7 | 58 | 2.8 | 1008.1 | 16.2 | SSW | 86 | 9.0 |
| 10.02.2020 | 15:54 | 10.8 | 57 | 2.6 | 1007.8 | 19.4 | WSW | 95 | 9.0 |
| 10.02.2020 | 15:58 | 10.8 | 58 | 2.9 | 1007.8 | 20.9 | SW | 98 | 9.0 |
| 10.02.2020 | 16:04 | 10.7 | 58 | 2.8 | 1007.9 | 17.6 | SW | 95 | 9.0 |
| 10.02.2020 | 16:08 | 10.7 | 58 | 2.8 | 1008.0 | 14.4 | SW | 63 | 9.0 |
| 10.02.2020 | 16:14 | 10.7 | 58 | 2.8 | 1007.9 | 19.4 | SSW | 95 | 9.0 |
| 10.02.2020 | 16:18 | 10.6 | 59 | 2.9 | 1007.8 | 17.6 | SW | 105 | 9.0 |
| 10.02.2020 | 16:24 | 10.6 | 59 | 2.9 | 1007.8 | 14.4 | SW | 109 | 9.0 |
| 10.02.2020 | 16:28 | 10.6 | 59 | 2.9 | 1007.7 | 13.0 | WNW | 125 | 9.0 |
| 10.02.2020 | 16:34 | 10.7 | 60 | 3.2 | 1007.5 | 9.7 | WSW | 69 | 9.0 |
| 10.02.2020 | 16:38 | 10.7 | 60 | 3.2 | 1007.5 | 11.2 | SW | 70 | 9.0 |
| 10.02.2020 | 16:44 | 10.7 | 59 | 3.0 | 1007.5 | 14.4 | WSW | 63 | 9.0 |
| 10.02.2020 | 16:48 | 10.7 | 59 | 3.0 | 1007.4 | 14.4 | SW | 58 | 9.0 |
| 10.02.2020 | 16:54 | 10.7 | 59 | 3.0 | 1007.2 | 13.0 | SSW | 46 | 9.0 |
| 10.02.2020 | 16:58 | 10.7 | 59 | 3.0 | 1007.1 | 13.0 | SW | 33 | 9.0 |
| 10.02.2020 | 17:04 | 10.6 | 59 | 2.9 | 1006.8 | 13.0 | SW | 19 | 9.0 |
| 10.02.2020 | 17:08 | 10.6 | 59 | 2.9 | 1006.8 | 14.4 | SW | 18 | 9.0 |
| 10.02.2020 | 17:14 | 10.4 | 59 | 2.7 | 1006.7 | 14.4 | SSW | 12 | 9.0 |
| 10.02.2020 | 17:18 | 10.4 | 59 | 2.7 | 1006.5 | 14.4 | WSW | 12 | 9.0 |
| 10.02.2020 | 17:24 | 10.2 | 60 | 2.8 | 1006.4 | 14.4 | S | 7 | 9.0 |
| 10.02.2020 | 17:28 | 10.1 | 61 | 2.9 | 1006.2 | 14.4 | SSW | 5 | 9.0 |
| 10.02.2020 | 17:34 | 9.9 | 62 | 3.0 | 1006.1 | 16.2 | SSW | 5 | 9.0 |
| 10.02.2020 | 17:38 | 9.8 | 62 | 2.9 | 1006.0 | 14.4 | S | 5 | 9.0 |
| 10.02.2020 | 17:44 | 9.6 | 64 | 3.1 | 1005.8 | 13.0 | SSW | 0 | 9.0 |
| 10.02.2020 | 17:48 | 9.5 | 65 | 3.2 | 1005.7 | 13.0 | SSW | 0 | 9.0 |
| 10.02.2020 | 17:54 | 9.4 | 66 | 3.4 | 1005.5 | 13.0 | SSW | 0 | 9.0 |
| 10.02.2020 | 17:58 | 9.3 | 67 | 3.5 | 1005.5 | 11.2 | SSW | 0 | 9.0 |
| 10.02.2020 | 18:04 | 9.3 | 68 | 3.7 | 1005.5 | 13.0 | SW | 0 | 9.0 |
| 10.02.2020 | 18:08 | 9.3 | 68 | 3.7 | 1005.4 | 13.0 | SW | 0 | 9.0 |
| 10.02.2020 | 18:14 | 9.3 | 68 | 3.7 | 1004.8 | 13.0 | SSW | 0 | 9.0 |
| 10.02.2020 | 18:18 | 9.3 | 68 | 3.7 | 1004.6 | 11.2 | SSW | 0 | 9.0 |
| 10.02.2020 | 18:24 | 9.3 | 68 | 3.7 | 1004.4 | 11.2 | SSW | 0 | 9.0 |
| 10.02.2020 | 18:28 | 9.2 | 68 | 3.6 | 1004.4 | 9.7 | SSW | 0 | 9.0 |
| 10.02.2020 | 18:34 | 9.2 | 69 | 3.8 | 1004.2 | 9.7 | SSW | 0 | 9.0 |
| 10.02.2020 | 18:38 | 9.2 | 69 | 3.8 | 1004.1 | 9.7 | S | 0 | 9.0 |
| 10.02.2020 | 18:44 | 9.2 | 69 | 3.8 | 1004.0 | 9.7 | SSW | 0 | 9.0 |
| 10.02.2020 | 18:48 | 9.2 | 69 | 3.8 | 1003.8 | 11.2 | SW | 0 | 9.0 |
| 10.02.2020 | 18:54 | 9.1 | 69 | 3.7 | 1003.6 | 11.2 | SSW | 0 | 9.0 |
| 10.02.2020 | 18:58 | 9.2 | 69 | 3.8 | 1003.6 | 11.2 | WSW | 0 | 9.0 |
| 10.02.2020 | 19:04 | 9.2 | 69 | 3.8 | 1003.4 | 9.7 | SW | 0 | 9.0 |
| 10.02.2020 | 19:08 | 9.1 | 71 | 4.1 | 1003.6 | 11.2 | SW | 0 | 9.0 |
| 10.02.2020 | 19:14 | 9.0 | 74 | 4.6 | 1003.7 | 17.6 | WNW | 0 | 9.0 |
| 10.02.2020 | 19:18 | 8.9 | 76 | 4.9 | 1003.6 | 16.2 | WSW | 0 | 9.0 |
| 10.02.2020 | 19:24 | 8.7 | 78 | 5.1 | 1003.6 | 7.9 | WSW | 0 | 9.2 |
| 10.02.2020 | 19:28 | 8.6 | 79 | 5.2 | 1003.5 | 7.9 | W | 0 | 9.2 |
| 10.02.2020 | 19:34 | 8.3 | 81 | 5.2 | 1003.2 | 7.9 | W | 0 | 9.2 |
| 10.02.2020 | 19:38 | 8.2 | 83 | 5.5 | 1002.8 | 7.9 | W | 0 | 9.4 |
| 10.02.2020 | 19:44 | 8.1 | 84 | 5.6 | 1002.6 | 9.7 | SW | 0 | 9.6 |
| 10.02.2020 | 19:48 | 7.9 | 85 | 5.5 | 1002.2 | 7.9 | SW | 0 | 9.6 |
| 10.02.2020 | 19:54 | 7.9 | 86 | 5.7 | 1002.1 | 11.2 | SSW | 0 | 9.6 |
| 10.02.2020 | 19:58 | 7.9 | 86 | 5.7 | 1002.1 | 9.7 | S | 0 | 9.6 |
| 10.02.2020 | 20:04 | 7.8 | 86 | 5.6 | 1002.2 | 7.9 | SSW | 0 | 9.6 |
| 10.02.2020 | 20:08 | 7.9 | 86 | 5.7 | 1002.0 | 9.7 | SW | 0 | 9.6 |
| 10.02.2020 | 20:14 | 8.0 | 87 | 6.0 | 1001.8 | 9.7 | SSW | 0 | 10.0 |
| 10.02.2020 | 20:18 | 8.0 | 87 | 6.0 | 1001.8 | 7.9 | WSW | 0 | 10.0 |
| 10.02.2020 | 20:24 | 8.1 | 88 | 6.2 | 1001.8 | 6.5 | WSW | 0 | 10.2 |
| 10.02.2020 | 20:28 | 8.2 | 88 | 6.3 | 1002.0 | 9.7 | WSW | 0 | 10.2 |
| 10.02.2020 | 20:34 | 8.6 | 88 | 6.7 | 1002.1 | 19.4 | SW | 0 | 10.4 |
| 10.02.2020 | 20:38 | 8.7 | 88 | 6.8 | 1002.2 | 22.7 | WNW | 0 | 10.6 |
| 10.02.2020 | 20:44 | 8.8 | 88 | 6.9 | 1002.1 | 17.6 | W | 0 | 11.0 |
| 10.02.2020 | 20:48 | 8.8 | 89 | 7.1 | 1001.9 | 16.2 | W | 0 | 11.0 |
| 10.02.2020 | 20:54 | 8.7 | 89 | 7.0 | 1001.9 | 16.2 | SW | 0 | 11.4 |
| 10.02.2020 | 20:58 | 8.7 | 89 | 7.0 | 1002.0 | 17.6 | WSW | 0 | 11.8 |
| 10.02.2020 | 21:04 | 8.7 | 90 | 7.2 | 1002.3 | 16.2 | W | 0 | 11.8 |
| 10.02.2020 | 21:08 | 8.6 | 90 | 7.1 | 1002.4 | 19.4 | NW | 0 | 12.4 |
| 10.02.2020 | 21:14 | 8.4 | 90 | 6.9 | 1002.4 | 25.9 | W | 0 | 13.4 |
| 10.02.2020 | 21:18 | 8.3 | 90 | 6.8 | 1002.8 | 24.1 | WSW | 0 | 13.4 |
| 10.02.2020 | 21:24 | 8.0 | 89 | 6.3 | 1002.7 | 20.9 | WSW | 0 | 13.8 |
| 10.02.2020 | 21:28 | 7.8 | 89 | 6.1 | 1002.7 | 22.7 | W | 0 | 14.2 |
| 10.02.2020 | 21:34 | 7.6 | 89 | 5.9 | 1002.9 | 19.4 | WSW | 0 | 14.2 |
| 10.02.2020 | 21:38 | 7.6 | 89 | 5.9 | 1003.0 | 17.6 | W | 0 | 14.2 |
| 10.02.2020 | 21:44 | 7.4 | 90 | 5.9 | 1003.0 | 16.2 | SW | 0 | 14.2 |
| 10.02.2020 | 21:48 | 7.4 | 90 | 5.9 | 1003.0 | 14.4 | WSW | 0 | 14.4 |
| 10.02.2020 | 21:54 | 7.3 | 90 | 5.8 | 1003.2 | 14.4 | W | 0 | 14.4 |
| 10.02.2020 | 21:58 | 7.3 | 91 | 5.9 | 1003.0 | 13.0 | WSW | 0 | 14.4 |
| 10.02.2020 | 22:04 | 7.3 | 91 | 5.9 | 1002.5 | 14.4 | W | 0 | 14.6 |
| 10.02.2020 | 22:08 | 7.2 | 91 | 5.8 | 1002.3 | 13.0 | WNW | 0 | 14.8 |
| 10.02.2020 | 22:14 | 7.2 | 91 | 5.8 | 1001.9 | 11.2 | W | 0 | 14.8 |
| 10.02.2020 | 22:18 | 7.2 | 91 | 5.8 | 1001.7 | 9.7 | WSW | 0 | 14.8 |
| 10.02.2020 | 22:24 | 7.2 | 91 | 5.8 | 1001.4 | 7.9 | WSW | 0 | 15.0 |
| 10.02.2020 | 22:28 | 7.2 | 91 | 5.8 | 1001.5 | 7.9 | SW | 0 | 15.0 |
| 10.02.2020 | 22:34 | 7.2 | 91 | 5.8 | 1001.1 | 9.7 | SW | 0 | 15.0 |
| 10.02.2020 | 22:38 | 7.2 | 91 | 5.8 | 1001.1 | 9.7 | WSW | 0 | 15.0 |
| 10.02.2020 | 22:44 | 7.2 | 91 | 5.8 | 1000.9 | 9.7 | WSW | 0 | 15.0 |
| 10.02.2020 | 22:48 | 7.2 | 91 | 5.8 | 1000.9 | 7.9 | SW | 0 | 15.0 |
| 10.02.2020 | 22:54 | 7.2 | 91 | 5.8 | 1001.0 | 7.9 | SSW | 0 | 15.0 |
| 10.02.2020 | 22:58 | 7.2 | 91 | 5.8 | 1000.8 | 9.7 | SSW | 0 | 15.0 |
| 10.02.2020 | 23:04 | 7.2 | 92 | 6.0 | 1000.7 | 9.7 | WNW | 0 | 15.0 |
| 10.02.2020 | 23:08 | 7.2 | 92 | 6.0 | 1000.9 | 9.7 | W | 0 | 15.2 |
| 10.02.2020 | 23:14 | 7.2 | 92 | 6.0 | 1001.7 | 11.2 | NW | 0 | 15.4 |
| 10.02.2020 | 23:18 | 7.3 | 92 | 6.1 | 1001.7 | 11.2 | NW | 0 | 15.4 |
| 10.02.2020 | 23:24 | 7.1 | 92 | 5.9 | 1001.9 | 16.2 | NW | 0 | 15.8 |
| 10.02.2020 | 23:28 | 6.8 | 92 | 5.6 | 1002.2 | 17.6 | NNW | 0 | 17.2 |
| 10.02.2020 | 23:34 | 6.5 | 92 | 5.3 | 1002.3 | 14.4 | WNW | 0 | 17.6 |
| 10.02.2020 | 23:38 | 6.3 | 92 | 5.1 | 1002.4 | 14.4 | W | 0 | 18.4 |
| 10.02.2020 | 23:44 | 6.1 | 92 | 4.9 | 1002.8 | 19.4 | WNW | 0 | 19.0 |
| 10.02.2020 | 23:48 | 5.9 | 92 | 4.7 | 1002.5 | 19.4 | WNW | 0 | 19.4 |
| 10.02.2020 | 23:54 | 5.8 | 92 | 4.6 | 1002.3 | 17.6 | W | 0 | 19.8 |
| 10.02.2020 | 23:58 | 5.7 | 92 | 4.5 | 1002.2 | 17.6 | NW | 0 | 20.2 |